Time;durP1;ratioP1;P1;durP2;ratioP2;P2;SDS_P1;SDS_P2;PMS_P1;PMS_P2;Temp;Humidity;BMP_temperature;BMP_pressure;BME280_temperature;BME280_humidity;BME280_pressure;Samples;Min_cycle;Max_cycle;Signal;HPM_P1;HPM_P2
2020/12/20 00:00:45;;;;;;;23.95;7.30;;;13.70;81.10;;;;;;2092843;28;20049;-79
2020/12/20 00:01:46;;;;;;;15.95;5.53;;;13.60;81.20;;;;;;2085515;28;20060;-78
2020/12/20 00:02:50;;;;;;;25.25;6.15;;;13.70;81.70;;;;;;2085764;28;20053;-79
2020/12/20 00:03:53;;;;;;;27.52;5.90;;;13.70;81.60;;;;;;2095405;28;20534;-79
2020/12/20 00:04:55;;;;;;;16.95;6.03;;;13.70;81.30;;;;;;2095715;28;20049;-79
2020/12/20 00:05:56;;;;;;;19.42;5.40;;;13.70;82.10;;;;;;2095416;28;20044;-79
2020/12/20 00:06:58;;;;;;;22.48;5.47;;;13.70;82.40;;;;;;2103469;28;20052;-79
2020/12/20 00:08:00;;;;;;;25.52;6.40;;;13.60;82.10;;;;;;2095411;28;20049;-79
2020/12/20 00:09:07;;;;;;;22.00;5.82;;;13.60;81.60;;;;;;2095033;28;20049;-80
2020/12/20 00:10:09;;;;;;;26.67;5.95;;;13.60;81.70;;;;;;2093491;28;20053;-79
2020/12/20 00:11:10;;;;;;;21.30;6.10;;;13.80;81.10;;;;;;2084965;28;20053;-79
2020/12/20 00:12:13;;;;;;;25.45;6.15;;;13.90;80.60;;;;;;2085049;28;20057;-79
2020/12/20 00:13:17;;;;;;;17.08;4.43;;;13.90;80.60;;;;;;2084703;28;20441;-78
2020/12/20 00:14:30;;;;;;;16.88;5.72;;;13.90;81.00;;;;;;2084804;28;20276;-78
2020/12/20 00:15:31;;;;;;;;;;;13.70;81.00;;;;;;2086057;28;20053;-78
2020/12/20 00:16:34;;;;;;;19.73;5.65;;;13.90;81.50;;;;;;2091635;28;19927;-79
2020/12/20 00:17:44;;;;;;;23.73;6.63;;;13.90;80.80;;;;;;2099844;28;20443;-78
2020/12/20 00:18:46;;;;;;;23.55;6.70;;;13.70;81.20;;;;;;2092312;28;20049;-79
2020/12/20 00:19:49;;;;;;;19.67;4.68;;;13.80;80.80;;;;;;2091845;28;20048;-79
2020/12/20 00:20:51;;;;;;;24.65;6.50;;;14.20;80.80;;;;;;2092638;28;20056;-78
2020/12/20 00:21:58;;;;;;;15.75;4.78;;;13.90;80.30;;;;;;2092209;28;20041;-78
2020/12/20 00:23:00;;;;;;;29.20;6.25;;;13.90;81.40;;;;;;2100154;28;20048;-79
2020/12/20 00:24:02;;;;;;;23.73;7.13;;;13.80;80.60;;;;;;2099914;28;20041;-79
2020/12/20 00:25:04;;;;;;;30.23;6.63;;;13.70;80.80;;;;;;2100441;28;20053;-79
2020/12/20 00:26:06;;;;;;;27.15;6.95;;;13.60;81.50;;;;;;2100424;28;20075;-78
2020/12/20 00:27:10;;;;;;;;;;;13.40;82.20;;;;;;2100667;28;20053;-78
2020/12/20 00:28:13;;;;;;;20.85;6.07;;;13.40;82.60;;;;;;2099287;28;20315;-79
2020/12/20 00:29:15;;;;;;;20.15;5.75;;;13.30;82.80;;;;;;2099820;28;20052;-78
2020/12/20 00:30:19;;;;;;;25.75;6.85;;;13.30;83.00;;;;;;2089786;28;20239;-79
2020/12/20 00:31:21;;;;;;;23.27;5.68;;;13.30;82.90;;;;;;2091506;28;20052;-78
2020/12/20 00:32:23;;;;;;;;;;;13.30;83.00;;;;;;2091187;28;20060;-79
2020/12/20 00:33:24;;;;;;;20.60;5.82;;;13.30;83.00;;;;;;2083163;28;19928;-79
2020/12/20 00:34:26;;;;;;;12.30;4.60;;;13.60;81.80;;;;;;2083181;28;20429;-78
2020/12/20 00:35:28;;;;;;;22.60;5.68;;;14.00;82.10;;;;;;2083037;28;20088;-78
2020/12/20 00:36:31;;;;;;;24.55;6.05;;;13.80;80.80;;;;;;2084091;28;20061;-78
2020/12/20 00:37:33;;;;;;;23.52;5.45;;;13.60;81.40;;;;;;2092231;28;20532;-77
2020/12/20 00:38:35;;;;;;;;;;;13.60;82.10;;;;;;2095521;28;20072;-78
2020/12/20 00:39:39;;;;;;;27.02;6.15;;;13.60;81.70;;;;;;2100737;28;19920;-78
2020/12/20 00:40:40;;;;;;;17.08;4.70;;;13.60;81.90;;;;;;2092121;28;20045;-78
2020/12/20 00:41:47;;;;;;;21.13;5.10;;;13.70;82.10;;;;;;2093061;28;20102;-80
2020/12/20 00:42:49;;;;;;;19.38;5.70;;;13.80;82.50;;;;;;2092848;28;20041;-78
2020/12/20 00:43:51;;;;;;;24.35;6.30;;;13.70;81.70;;;;;;2092003;28;20052;-78
2020/12/20 00:44:53;;;;;;;;;;;13.60;81.80;;;;;;2091725;28;20516;-78
2020/12/20 00:45:55;;;;;;;29.73;6.45;;;13.50;83.10;;;;;;2091119;28;19920;-78
2020/12/20 00:46:59;;;;;;;19.58;5.55;;;13.50;82.50;;;;;;2091498;28;20041;-78
2020/12/20 00:48:01;;;;;;;37.20;7.55;;;13.60;82.60;;;;;;2098901;28;20131;-78
2020/12/20 00:49:03;;;;;;;27.05;5.93;;;13.60;82.00;;;;;;2083016;28;20287;-78
2020/12/20 00:50:04;;;;;;;25.95;6.03;;;13.40;82.30;;;;;;2091456;28;20041;-79
2020/12/20 00:51:07;;;;;;;21.15;5.72;;;13.50;82.50;;;;;;2091017;28;20049;-78
2020/12/20 00:52:09;;;;;;;;;;;13.60;82.60;;;;;;2091576;28;20049;-78
2020/12/20 00:53:11;;;;;;;24.38;5.90;;;13.70;81.90;;;;;;2091138;28;19921;-80
2020/12/20 00:54:14;;;;;;;27.35;5.97;;;13.50;82.00;;;;;;2091312;28;20080;-79
2020/12/20 00:55:16;;;;;;;21.15;6.18;;;13.30;82.30;;;;;;2090728;28;20044;-78
2020/12/20 00:56:18;;;;;;;21.88;6.03;;;13.40;82.80;;;;;;2091610;28;20049;-78
2020/12/20 00:57:21;;;;;;;28.38;7.15;;;13.20;83.80;;;;;;2099762;28;20290;-78
2020/12/20 00:58:23;;;;;;;24.75;6.53;;;13.10;84.00;;;;;;2091715;28;20485;-78
2020/12/20 00:59:25;;;;;;;24.67;5.38;;;13.10;84.60;;;;;;2090852;28;20060;-78
2020/12/20 01:00:27;;;;;;;25.13;5.97;;;13.50;83.30;;;;;;2099134;28;20127;-78
2020/12/20 01:01:30;;;;;;;22.58;5.28;;;13.60;82.40;;;;;;2099651;28;20067;-77
2020/12/20 01:02:31;;;;;;;28.33;6.78;;;13.50;83.10;;;;;;2091308;28;20041;-78
2020/12/20 01:03:33;;;;;;;25.75;6.22;;;13.60;81.90;;;;;;2092270;28;20083;-79
2020/12/20 01:04:38;;;;;;;26.90;6.22;;;13.60;82.30;;;;;;2098755;28;20489;-78
2020/12/20 01:05:40;;;;;;;25.42;6.85;;;13.50;82.40;;;;;;2108175;28;20059;-79
2020/12/20 01:06:42;;;;;;;28.55;6.60;;;13.30;83.00;;;;;;2099222;28;20052;-78
2020/12/20 01:07:44;;;;;;;27.05;6.07;;;13.40;83.10;;;;;;2091317;28;20049;-79
2020/12/20 01:08:48;;;;;;;30.33;6.30;;;13.30;83.20;;;;;;2099672;28;20459;-78
2020/12/20 01:09:49;;;;;;;19.55;5.70;;;13.70;82.90;;;;;;2100162;28;20051;-80
2020/12/20 01:10:51;;;;;;;36.03;6.85;;;13.50;82.30;;;;;;2099990;28;20081;-78
2020/12/20 01:11:57;;;;;;;25.55;5.38;;;13.40;82.90;;;;;;2099850;28;20540;-78
2020/12/20 01:12:59;;;;;;;17.90;4.25;;;13.50;83.00;;;;;;2092756;28;20053;-78
2020/12/20 01:14:03;;;;;;;18.52;5.22;;;14.00;82.70;;;;;;2093209;28;20294;-78
2020/12/20 01:15:05;;;;;;;21.20;5.07;;;13.90;82.10;;;;;;2092398;28;20048;-78
2020/12/20 01:16:07;;;;;;;20.30;5.68;;;13.90;81.40;;;;;;2099414;28;20416;-78
2020/12/20 01:17:10;;;;;;;30.13;6.30;;;13.80;81.50;;;;;;2099005;28;20493;-78
2020/12/20 01:18:13;;;;;;;15.85;4.20;;;13.60;81.80;;;;;;2091383;28;20045;-78
2020/12/20 01:19:15;;;;;;;26.70;5.57;;;13.80;82.10;;;;;;2091584;28;20072;-78
2020/12/20 01:20:16;;;;;;;35.67;6.47;;;13.80;81.50;;;;;;2091950;28;20163;-78
2020/12/20 01:21:18;;;;;;;25.67;6.13;;;13.60;81.80;;;;;;2091675;28;20060;-79
2020/12/20 01:22:20;;;;;;;28.80;6.55;;;13.80;81.60;;;;;;2091123;28;20477;-79
2020/12/20 01:23:22;;;;;;;23.73;6.15;;;13.60;81.80;;;;;;2090755;28;20071;-79
2020/12/20 01:24:24;;;;;;;28.25;6.28;;;13.40;82.50;;;;;;2082893;28;20041;-78
2020/12/20 01:25:26;;;;;;;28.98;6.90;;;13.20;83.00;;;;;;2090346;28;20095;-79
2020/12/20 01:26:28;;;;;;;20.85;6.28;;;13.30;83.30;;;;;;2082521;28;20046;-78
2020/12/20 01:27:30;;;;;;;26.65;7.03;;;13.40;83.10;;;;;;2082562;28;20045;-79
2020/12/20 01:28:33;;;;;;;22.35;6.30;;;13.40;83.10;;;;;;2082261;28;20073;-78
2020/12/20 01:29:34;;;;;;;20.00;5.47;;;13.40;83.00;;;;;;2090348;28;20443;-79
2020/12/20 01:30:36;;;;;;;29.52;6.47;;;13.50;82.40;;;;;;2082296;28;20049;-79
2020/12/20 01:31:38;;;;;;;22.55;4.82;;;13.50;82.00;;;;;;2081965;28;20080;-79
2020/12/20 01:32:41;;;;;;;25.73;6.18;;;13.80;82.70;;;;;;2098539;28;20049;-78
2020/12/20 01:33:44;;;;;;;30.88;7.00;;;13.60;81.50;;;;;;2098501;28;20040;-78
2020/12/20 01:34:46;;;;;;;36.33;6.38;;;13.40;82.00;;;;;;2082686;28;20052;-78
2020/12/20 01:35:47;;;;;;;23.90;5.15;;;13.50;82.20;;;;;;2082300;28;20050;-77
2020/12/20 01:36:50;;;;;;;17.90;4.57;;;13.60;81.90;;;;;;2090433;28;20049;-78
2020/12/20 01:37:53;;;;;;;32.08;5.28;;;14.20;80.70;;;;;;2082393;28;20053;-78
2020/12/20 01:38:57;;;;;;;23.00;6.00;;;14.20;79.70;;;;;;2080058;28;20045;-78
2020/12/20 01:39:58;;;;;;;23.95;6.45;;;13.90;80.20;;;;;;2083211;28;20038;-78
2020/12/20 01:41:02;;;;;;;30.20;5.82;;;13.90;80.30;;;;;;2090767;28;20081;-78
2020/12/20 01:42:04;;;;;;;25.45;5.43;;;13.60;80.60;;;;;;2090231;28;20159;-78
2020/12/20 01:43:06;;;;;;;19.83;5.25;;;14.00;81.40;;;;;;2091483;28;20052;-78
2020/12/20 01:44:07;;;;;;;26.60;5.90;;;13.90;80.80;;;;;;2090944;28;20049;-78
2020/12/20 01:45:09;;;;;;;32.28;6.88;;;13.80;80.30;;;;;;2082430;28;20055;-78
2020/12/20 01:46:14;;;;;;;26.15;5.63;;;13.60;80.80;;;;;;2091035;28;20049;-78
2020/12/20 01:47:17;;;;;;;29.75;5.68;;;13.50;81.30;;;;;;2091416;28;20051;-78
2020/12/20 01:48:31;;;;;;;27.55;6.57;;;13.60;81.60;;;;;;2090405;28;20438;-78
2020/12/20 01:49:34;;;;;;;26.08;5.90;;;13.60;81.00;;;;;;2090559;28;20056;-79
2020/12/20 01:50:36;;;;;;;27.15;5.82;;;13.60;81.20;;;;;;2091898;28;20055;-78
2020/12/20 01:51:38;;;;;;;;;;;13.40;81.40;;;;;;2091735;28;20391;-79
2020/12/20 01:52:41;;;;;;;27.55;6.50;;;13.40;81.80;;;;;;2090800;28;19954;-79
2020/12/20 01:53:46;;;;;;;17.98;4.57;;;13.60;81.60;;;;;;2090660;28;20072;-80
2020/12/20 01:54:51;;;;;;;29.63;6.38;;;13.60;81.70;;;;;;2091870;28;20052;-80
2020/12/20 01:55:59;;;;;;;28.33;5.88;;;13.50;81.80;;;;;;2091320;28;20054;-79
2020/12/20 01:57:03;;;;;;;23.90;5.68;;;13.40;82.10;;;;;;2084476;28;20049;-79
2020/12/20 01:58:04;;;;;;;24.83;5.97;;;13.50;83.10;;;;;;2091558;28;20041;-79
2020/12/20 01:59:06;;;;;;;27.73;6.03;;;13.20;82.50;;;;;;2091383;28;20044;-79
2020/12/20 02:00:09;;;;;;;29.02;5.95;;;13.20;83.00;;;;;;2083253;28;20084;-78
2020/12/20 02:01:11;;;;;;;26.13;5.40;;;13.30;83.50;;;;;;2090970;28;20064;-79
2020/12/20 02:02:13;;;;;;;26.63;5.35;;;13.50;82.20;;;;;;2090678;28;20288;-79
2020/12/20 02:03:15;;;;;;;25.55;5.28;;;13.30;82.40;;;;;;2091359;28;20068;-79
2020/12/20 02:04:17;;;;;;;27.70;6.72;;;13.50;82.20;;;;;;2091470;28;20128;-79
2020/12/20 02:05:20;;;;;;;27.52;5.90;;;13.30;82.40;;;;;;2091633;28;20076;-79
2020/12/20 02:06:22;;;;;;;26.20;5.95;;;13.50;82.10;;;;;;2091866;28;20053;-79
2020/12/20 02:07:24;;;;;;;26.55;5.15;;;13.60;81.60;;;;;;2091214;28;20053;-79
2020/12/20 02:08:26;;;;;;;14.23;4.03;;;13.60;81.40;;;;;;2084223;28;20045;-79
2020/12/20 02:09:29;;;;;;;24.58;5.68;;;13.90;81.50;;;;;;2083450;28;20060;-79
2020/12/20 02:10:31;;;;;;;30.60;5.95;;;13.80;80.90;;;;;;2075828;28;20057;-79
2020/12/20 02:11:32;;;;;;;;;;;13.90;80.50;;;;;;2085643;28;20115;-79
2020/12/20 02:12:35;;;;;;;31.30;6.63;;;13.70;80.80;;;;;;2095419;28;19924;-79
2020/12/20 02:13:41;;;;;;;31.25;6.72;;;13.60;81.50;;;;;;2102195;28;20062;-79
2020/12/20 02:14:44;;;;;;;23.17;4.65;;;13.40;81.90;;;;;;2102105;28;20045;-79
2020/12/20 02:15:46;;;;;;;;;;;13.50;82.50;;;;;;2094823;28;20045;-79
2020/12/20 02:16:47;;;;;;;24.40;5.65;;;13.80;81.60;;;;;;2086926;28;19921;-79
2020/12/20 02:17:49;;;;;;;31.50;7.30;;;13.90;80.80;;;;;;2096815;28;20041;-80
2020/12/20 02:18:52;;;;;;;13.95;3.97;;;13.80;80.80;;;;;;2096295;28;20052;-79
2020/12/20 02:19:55;;;;;;;;;;;14.00;80.90;;;;;;2097000;28;20063;-80
2020/12/20 02:20:57;;;;;;;23.80;6.55;;;13.90;80.40;;;;;;2095366;28;19921;-79
2020/12/20 02:22:00;;;;;;;31.50;6.72;;;13.70;80.90;;;;;;2095723;28;20041;-79
2020/12/20 02:23:02;;;;;;;26.27;4.82;;;13.80;81.40;;;;;;2087165;28;20037;-79
2020/12/20 02:24:03;;;;;;;43.55;7.03;;;14.00;81.00;;;;;;2085774;28;20044;-80
2020/12/20 02:25:05;;;;;;;;;;;13.70;81.00;;;;;;2094978;28;20182;-79
2020/12/20 02:26:08;;;;;;;28.23;6.00;;;13.70;81.40;;;;;;2093907;28;19940;-80
2020/12/20 02:27:10;;;;;;;34.08;6.85;;;13.70;81.50;;;;;;2085433;28;20065;-79
2020/12/20 02:28:12;;;;;;;;;;;13.70;81.30;;;;;;2093611;28;20281;-80
2020/12/20 02:29:13;;;;;;;29.88;6.82;;;13.80;81.80;;;;;;2093672;28;20030;-79
2020/12/20 02:30:16;;;;;;;30.33;5.95;;;13.70;80.80;;;;;;2090887;28;20052;-79
2020/12/20 02:31:17;;;;;;;;;;;14.00;80.80;;;;;;2093177;28;20045;-79
2020/12/20 02:32:20;;;;;;;40.60;6.40;;;13.90;80.20;;;;;;2091551;28;19927;-79
2020/12/20 02:33:22;;;;;;;27.90;5.53;;;14.00;79.90;;;;;;2091869;28;20048;-79
2020/12/20 02:34:26;;;;;;;35.33;6.40;;;14.20;80.00;;;;;;2091752;28;20056;-79
2020/12/20 02:35:28;;;;;;;30.00;7.43;;;14.00;79.70;;;;;;2091804;28;20306;-79
2020/12/20 02:36:30;;;;;;;26.17;6.18;;;14.10;79.70;;;;;;2099982;28;20052;-79
2020/12/20 02:37:33;;;;;;;30.27;5.70;;;14.10;79.20;;;;;;2091970;28;20045;-79
2020/12/20 02:38:35;;;;;;;31.58;6.07;;;14.00;79.50;;;;;;2092752;28;20045;-79
2020/12/20 02:39:40;;;;;;;39.28;7.38;;;13.80;80.00;;;;;;2092959;28;20110;-79
2020/12/20 02:40:42;;;;;;;29.58;6.40;;;14.10;80.10;;;;;;2084258;28;20050;-79
2020/12/20 02:41:55;;;;;;;29.33;6.88;;;13.90;80.00;;;;;;2076687;28;20169;-79
2020/12/20 02:42:58;;;;;;;29.15;6.40;;;13.80;80.50;;;;;;2085856;28;20074;-79
2020/12/20 02:44:00;;;;;;;32.92;6.07;;;13.80;80.60;;;;;;2100344;28;20049;-79
2020/12/20 02:45:03;;;;;;;23.65;4.82;;;13.70;80.50;;;;;;2091757;28;20485;-79
2020/12/20 02:46:04;;;;;;;;;;;14.00;80.60;;;;;;2077036;28;20054;-79
2020/12/20 02:47:09;;;;;;;38.42;5.97;;;14.20;80.10;;;;;;2092189;28;20362;-79
2020/12/20 02:48:11;;;;;;;29.58;6.68;;;14.10;79.40;;;;;;2101241;28;20052;-78
2020/12/20 02:49:15;;;;;;;27.10;6.53;;;13.90;80.00;;;;;;2085712;28;20097;-78
2020/12/20 02:50:17;;;;;;;35.75;6.53;;;13.90;80.30;;;;;;2086353;28;20045;-79
2020/12/20 02:51:19;;;;;;;36.75;6.97;;;13.80;80.50;;;;;;2095303;28;20049;-80
2020/12/20 02:52:21;;;;;;;;;;;13.70;80.50;;;;;;2094993;28;20095;-79
2020/12/20 02:53:24;;;;;;;27.17;5.55;;;13.80;80.70;;;;;;2091314;28;19921;-79
2020/12/20 02:54:27;;;;;;;26.27;5.88;;;13.80;80.60;;;;;;2091331;28;20469;-79
2020/12/20 02:55:28;;;;;;;31.23;5.45;;;14.00;80.30;;;;;;2091563;28;20124;-79
2020/12/20 02:56:30;;;;;;;33.20;5.88;;;13.90;79.80;;;;;;2090956;28;20454;-79
2020/12/20 02:57:32;;;;;;;;;;;14.00;80.00;;;;;;2091856;28;20198;-78
2020/12/20 02:58:34;;;;;;;34.95;6.57;;;13.90;80.00;;;;;;2108164;28;19924;-78
2020/12/20 02:59:36;;;;;;;33.55;6.45;;;13.80;80.20;;;;;;2107571;28;20072;-79
2020/12/20 03:00:38;;;;;;;35.58;6.35;;;13.90;80.30;;;;;;2099727;28;20055;-79
2020/12/20 03:01:40;;;;;;;33.85;6.28;;;14.00;79.90;;;;;;2099651;28;20052;-79
2020/12/20 03:02:44;;;;;;;36.63;7.22;;;13.90;79.70;;;;;;2091537;28;20143;-79
2020/12/20 03:03:45;;;;;;;28.30;5.82;;;13.90;79.90;;;;;;2091643;28;20128;-79
2020/12/20 03:04:47;;;;;;;27.08;5.90;;;13.80;80.10;;;;;;2090962;28;20067;-78
2020/12/20 03:05:49;;;;;;;35.28;6.70;;;14.10;79.90;;;;;;2091076;28;20466;-78
2020/12/20 03:06:50;;;;;;;40.95;7.35;;;14.00;79.80;;;;;;2082556;28;20053;-79
2020/12/20 03:07:52;;;;;;;25.63;5.05;;;13.90;80.20;;;;;;2083439;28;20049;-78
2020/12/20 03:08:55;;;;;;;34.30;5.85;;;13.90;80.50;;;;;;2083484;28;20045;-79
2020/12/20 03:09:58;;;;;;;33.40;5.93;;;13.90;80.20;;;;;;2083951;28;20051;-79
2020/12/20 03:11:02;;;;;;;36.40;6.72;;;13.90;80.50;;;;;;2083253;28;20060;-79
2020/12/20 03:12:04;;;;;;;;;;;13.90;80.00;;;;;;2084482;28;20045;-79
2020/12/20 03:13:08;;;;;;;28.35;5.72;;;13.80;80.40;;;;;;2100797;28;19920;-79
2020/12/20 03:14:10;;;;;;;28.83;6.25;;;13.90;80.80;;;;;;2091518;28;20513;-79
2020/12/20 03:15:15;;;;;;;36.85;5.85;;;13.90;80.30;;;;;;2075800;28;20042;-79
2020/12/20 03:16:19;;;;;;;33.80;6.45;;;14.00;80.40;;;;;;2075759;28;20037;-79
2020/12/20 03:17:23;;;;;;;29.60;6.32;;;13.80;80.60;;;;;;2087115;28;20422;-79
2020/12/20 03:18:25;;;;;;;34.67;6.60;;;13.50;81.50;;;;;;2091612;28;20413;-79
2020/12/20 03:19:29;;;;;;;42.08;6.68;;;13.50;81.90;;;;;;2083391;28;20565;-79
2020/12/20 03:20:31;;;;;;;36.88;6.53;;;13.40;81.90;;;;;;2090595;28;20489;-78
2020/12/20 03:21:32;;;;;;;33.22;6.88;;;13.40;82.30;;;;;;2091333;28;20060;-79
2020/12/20 03:22:34;;;;;;;;;;;13.40;82.10;;;;;;2088574;28;20722;-79
2020/12/20 03:23:36;;;;;;;31.08;6.38;;;13.40;82.60;;;;;;2099579;28;19967;-79
2020/12/20 03:24:40;;;;;;;21.02;5.05;;;13.40;82.20;;;;;;2099276;28;20055;-79
2020/12/20 03:25:42;;;;;;;31.15;6.15;;;13.60;82.50;;;;;;2101206;28;20048;-79
2020/12/20 03:26:45;;;;;;;32.45;5.93;;;13.40;82.30;;;;;;2102213;28;20056;-79
2020/12/20 03:27:47;;;;;;;33.05;6.65;;;13.30;82.40;;;;;;2086663;28;20046;-78
2020/12/20 03:28:51;;;;;;;31.52;5.72;;;13.40;82.30;;;;;;2086608;28;20152;-78
2020/12/20 03:29:53;;;;;;;33.90;5.70;;;13.40;82.40;;;;;;2093430;28;20045;-78
2020/12/20 03:30:55;;;;;;;29.45;5.55;;;13.40;82.30;;;;;;2087196;28;20544;-79
2020/12/20 03:31:57;;;;;;;28.70;5.65;;;13.40;82.20;;;;;;2078510;28;20041;-78
2020/12/20 03:32:59;;;;;;;29.10;6.53;;;13.40;82.30;;;;;;2086746;28;20054;-78
2020/12/20 03:34:01;;;;;;;33.75;6.78;;;13.60;82.30;;;;;;2086476;28;20045;-79
2020/12/20 03:35:05;;;;;;;26.58;5.28;;;13.60;81.40;;;;;;2092840;28;20405;-78
2020/12/20 03:36:07;;;;;;;31.17;6.10;;;13.70;82.20;;;;;;2090545;28;20045;-77
2020/12/20 03:37:09;;;;;;;31.95;5.57;;;13.80;80.80;;;;;;2083035;28;20053;-78
2020/12/20 03:38:11;;;;;;;31.08;5.53;;;13.80;80.90;;;;;;2091323;28;20093;-78
2020/12/20 03:39:12;;;;;;;30.38;5.47;;;13.60;81.10;;;;;;2091308;28;20069;-78
2020/12/20 03:40:17;;;;;;;25.35;4.93;;;13.70;81.10;;;;;;2099201;28;20049;-78
2020/12/20 03:41:21;;;;;;;32.42;5.63;;;13.80;81.10;;;;;;2090768;28;20551;-78
2020/12/20 03:42:25;;;;;;;32.60;5.65;;;14.20;80.00;;;;;;2091475;28;20053;-78
2020/12/20 03:43:27;;;;;;;33.88;6.05;;;13.90;79.90;;;;;;2091866;28;20049;-78
2020/12/20 03:44:29;;;;;;;36.55;6.53;;;13.80;80.50;;;;;;2099817;28;20402;-78
2020/12/20 03:45:33;;;;;;;43.33;6.45;;;13.80;80.20;;;;;;2091738;28;20395;-77
2020/12/20 03:46:36;;;;;;;26.95;5.70;;;13.80;80.20;;;;;;2091335;28;20493;-78
2020/12/20 03:47:38;;;;;;;32.63;6.35;;;13.90;80.20;;;;;;2100110;28;20051;-78
2020/12/20 03:48:40;;;;;;;36.60;6.30;;;13.70;80.40;;;;;;2100014;28;20537;-77
2020/12/20 03:49:49;;;;;;;37.50;5.78;;;13.60;80.50;;;;;;2092329;28;20469;-78
2020/12/20 03:50:51;;;;;;;32.72;5.70;;;13.50;81.20;;;;;;2092696;28;20045;-78
2020/12/20 03:51:53;;;;;;;25.40;5.40;;;13.40;81.60;;;;;;2084481;28;20510;-78
2020/12/20 03:52:56;;;;;;;30.60;6.25;;;13.50;81.50;;;;;;2092858;28;20525;-78
2020/12/20 03:54:03;;;;;;;38.20;6.03;;;13.50;81.20;;;;;;2093233;28;20068;-78
2020/12/20 03:55:05;;;;;;;29.20;5.53;;;13.60;81.10;;;;;;2092864;28;20533;-78
2020/12/20 03:56:11;;;;;;;25.38;5.63;;;13.50;81.20;;;;;;2084521;28;20137;-78
2020/12/20 03:57:13;;;;;;;24.42;5.70;;;13.80;81.00;;;;;;2084826;28;20049;-78
2020/12/20 03:58:14;;;;;;;29.92;6.28;;;13.90;80.50;;;;;;2092146;28;20512;-78
2020/12/20 03:59:16;;;;;;;;;;;13.70;80.40;;;;;;2093779;28;20049;-78
2020/12/20 04:00:19;;;;;;;35.47;6.25;;;14.00;80.80;;;;;;2100574;28;19966;-77
2020/12/20 04:01:21;;;;;;;30.20;5.75;;;13.70;80.50;;;;;;2100298;28;20044;-78
2020/12/20 04:02:23;;;;;;;35.30;6.63;;;13.60;81.20;;;;;;2092171;28;20510;-78
2020/12/20 04:03:25;;;;;;;26.85;5.53;;;13.50;81.50;;;;;;2092817;28;20517;-78
2020/12/20 04:04:29;;;;;;;33.42;6.05;;;13.60;82.20;;;;;;2099956;28;20072;-77
2020/12/20 04:05:31;;;;;;;31.77;5.55;;;13.70;81.20;;;;;;2084966;28;20049;-78
2020/12/20 04:06:33;;;;;;;31.85;5.97;;;13.70;80.60;;;;;;2084529;28;20607;-78
2020/12/20 04:07:35;;;;;;;39.90;6.38;;;13.70;80.50;;;;;;2084609;28;20073;-77
2020/12/20 04:08:37;;;;;;;17.98;3.80;;;13.70;80.70;;;;;;2084820;28;20045;-78
2020/12/20 04:09:38;;;;;;;39.72;7.53;;;14.00;81.20;;;;;;2085036;28;20042;-78
2020/12/20 04:10:41;;;;;;;30.15;6.00;;;14.10;79.50;;;;;;2084748;28;20060;-77
2020/12/20 04:11:44;;;;;;;40.85;5.57;;;14.00;79.40;;;;;;2092597;28;20060;-78
2020/12/20 04:12:46;;;;;;;21.00;4.85;;;13.90;80.20;;;;;;2100187;28;20087;-77
2020/12/20 04:13:48;;;;;;;36.20;6.88;;;14.10;80.20;;;;;;2084348;28;20049;-77
2020/12/20 04:14:50;;;;;;;26.63;5.20;;;14.10;79.20;;;;;;2092763;28;20151;-77
2020/12/20 04:15:56;;;;;;;33.15;5.97;;;14.00;79.80;;;;;;2100544;28;20048;-77
2020/12/20 04:16:58;;;;;;;41.47;6.80;;;13.80;79.80;;;;;;2092528;28;20134;-77
2020/12/20 04:18:00;;;;;;;31.27;5.88;;;13.60;80.30;;;;;;2084871;28;20493;-77
2020/12/20 04:19:02;;;;;;;;;;;13.60;80.80;;;;;;2085240;28;20110;-77
2020/12/20 04:20:06;;;;;;;24.17;5.25;;;13.60;81.50;;;;;;2091781;28;19921;-79
2020/12/20 04:21:07;;;;;;;17.50;4.00;;;13.50;81.20;;;;;;2092285;28;20433;-79
2020/12/20 04:22:10;;;;;;;32.20;6.00;;;14.00;81.70;;;;;;2092225;28;20049;-79
2020/12/20 04:23:11;;;;;;;28.92;5.80;;;13.80;80.50;;;;;;2092130;28;20124;-79
2020/12/20 04:24:14;;;;;;;29.83;6.68;;;13.50;81.30;;;;;;2092637;28;20077;-79
2020/12/20 04:25:16;;;;;;;30.95;6.03;;;13.50;81.40;;;;;;2099577;28;20044;-79
2020/12/20 04:26:18;;;;;;;;;;;13.40;81.60;;;;;;2092393;28;20053;-79
2020/12/20 04:27:21;;;;;;;31.58;5.80;;;13.40;81.60;;;;;;2092511;28;19928;-79
2020/12/20 04:28:23;;;;;;;27.40;5.50;;;13.40;81.70;;;;;;2083728;28;20061;-79
2020/12/20 04:29:24;;;;;;;23.58;5.07;;;13.40;82.40;;;;;;2083125;28;20426;-79
2020/12/20 04:30:27;;;;;;;32.63;5.50;;;13.90;80.70;;;;;;2084678;28;20049;-79
2020/12/20 04:31:29;;;;;;;18.90;4.18;;;13.60;80.50;;;;;;2075360;28;20068;-79
2020/12/20 04:32:33;;;;;;;;;;;13.90;81.30;;;;;;2075881;28;20108;-79
2020/12/20 04:33:39;;;;;;;28.38;6.32;;;13.70;80.40;;;;;;2075588;28;19960;-77
2020/12/20 04:34:43;;;;;;;28.00;5.47;;;13.90;80.90;;;;;;2084206;28;20053;-78
2020/12/20 04:35:45;;;;;;;24.25;5.22;;;14.10;79.20;;;;;;2083835;28;20061;-79
2020/12/20 04:36:47;;;;;;;;;;;14.10;79.10;;;;;;2084472;28;20054;-77
2020/12/20 04:37:48;;;;;;;33.50;6.57;;;13.90;79.30;;;;;;2082874;28;19944;-79
2020/12/20 04:38:50;;;;;;;32.15;6.00;;;13.70;79.90;;;;;;2087718;28;20127;-78
2020/12/20 04:39:52;;;;;;;21.92;4.45;;;13.60;80.50;;;;;;2092999;28;20485;-77
2020/12/20 04:40:54;;;;;;;31.02;5.93;;;13.90;80.80;;;;;;2100278;28;20570;-78
2020/12/20 04:41:58;;;;;;;;;;;13.70;80.50;;;;;;2092702;28;20085;-78
2020/12/20 04:43:04;;;;;;;28.10;5.57;;;13.80;80.60;;;;;;2076555;28;19921;-78
2020/12/20 04:44:07;;;;;;;38.60;6.38;;;13.50;80.80;;;;;;2085393;28;20058;-78
2020/12/20 04:45:09;;;;;;;34.00;6.03;;;13.40;81.50;;;;;;2093008;28;20064;-79
2020/12/20 04:46:11;;;;;;;28.27;4.72;;;13.60;81.60;;;;;;2092745;28;20430;-79
2020/12/20 04:47:16;;;;;;;21.20;4.93;;;13.70;81.10;;;;;;2084606;28;20326;-79
2020/12/20 04:48:19;;;;;;;29.48;5.95;;;13.90;81.40;;;;;;2092581;28;20044;-79
2020/12/20 04:49:23;;;;;;;28.48;5.60;;;13.70;80.40;;;;;;2084183;28;20046;-80
2020/12/20 04:50:29;;;;;;;28.52;5.30;;;13.60;80.60;;;;;;2093056;28;20534;-79
2020/12/20 04:51:33;;;;;;;38.60;6.10;;;13.50;80.80;;;;;;2100048;28;20102;-78
2020/12/20 04:52:36;;;;;;;19.42;4.30;;;13.40;81.40;;;;;;2100447;28;20080;-78
2020/12/20 04:53:38;;;;;;;30.30;5.88;;;13.50;81.90;;;;;;2100407;28;20044;-78
2020/12/20 04:54:40;;;;;;;35.03;6.75;;;13.40;81.40;;;;;;2093399;28;20048;-78
2020/12/20 04:55:43;;;;;;;35.85;6.85;;;13.30;82.10;;;;;;2093888;28;20045;-78
2020/12/20 04:56:45;;;;;;;33.35;6.03;;;13.30;82.00;;;;;;2099083;28;20056;-78
2020/12/20 04:57:47;;;;;;;29.70;5.70;;;13.20;82.40;;;;;;2099661;28;20056;-78
2020/12/20 04:58:50;;;;;;;33.15;5.68;;;13.10;83.00;;;;;;2083621;28;20052;-78
2020/12/20 04:59:52;;;;;;;25.92;5.45;;;13.20;83.10;;;;;;2091389;28;20405;-78
2020/12/20 05:00:54;;;;;;;38.13;5.85;;;13.20;82.40;;;;;;2099628;28;20068;-78
2020/12/20 05:01:57;;;;;;;;;;;13.40;81.90;;;;;;2099802;28;20409;-78
2020/12/20 05:03:00;;;;;;;27.02;5.28;;;13.40;81.80;;;;;;2098870;28;19920;-78
2020/12/20 05:04:02;;;;;;;20.92;4.72;;;13.40;82.50;;;;;;2090810;28;20044;-78
2020/12/20 05:05:04;;;;;;;21.38;4.90;;;13.70;81.70;;;;;;2090599;28;20052;-78
2020/12/20 05:06:07;;;;;;;37.55;6.35;;;13.50;81.40;;;;;;2091806;28;20087;-78
2020/12/20 05:07:10;;;;;;;34.47;6.45;;;13.60;81.60;;;;;;2090988;28;20053;-78
2020/12/20 05:08:14;;;;;;;34.72;6.05;;;13.50;81.20;;;;;;2091649;28;20060;-78
2020/12/20 05:09:16;;;;;;;21.38;3.88;;;13.40;81.60;;;;;;2098265;28;20055;-77
2020/12/20 05:10:37;;;;;;;26.67;5.80;;;13.90;80.70;;;;;;2083577;28;20049;-79
2020/12/20 05:11:44;;;;;;;26.55;5.65;;;13.50;80.50;;;;;;2093972;28;20091;-78
2020/12/20 05:12:47;;;;;;;26.52;5.47;;;13.70;79.90;;;;;;2098076;28;20075;-78
2020/12/20 05:13:50;;;;;;;27.83;5.47;;;13.40;80.40;;;;;;2091177;28;20041;-79
2020/12/20 05:14:52;;;;;;;26.92;5.60;;;13.30;81.00;;;;;;2091841;28;20051;-79
2020/12/20 05:15:53;;;;;;;;;;;13.20;81.60;;;;;;2102848;28;20051;-79
2020/12/20 05:16:56;;;;;;;32.58;5.40;;;13.10;81.80;;;;;;2101361;28;20141;-79
2020/12/20 05:18:05;;;;;;;31.08;5.43;;;13.00;82.20;;;;;;2094575;28;20041;-79
2020/12/20 05:19:16;;;;;;;29.75;5.88;;;12.90;83.00;;;;;;2101863;28;20056;-79
2020/12/20 05:20:35;;;;;;;28.02;5.57;;;12.90;82.40;;;;;;2093226;28;20084;-78
2020/12/20 05:21:37;;;;;;;32.63;5.82;;;12.80;82.70;;;;;;2088231;28;20041;-78
2020/12/20 05:22:39;;;;;;;32.53;4.78;;;12.80;82.60;;;;;;2094432;28;20123;-78
2020/12/20 05:23:44;;;;;;;23.30;4.55;;;12.70;83.00;;;;;;2093946;28;20064;-78
2020/12/20 05:24:48;;;;;;;20.42;3.88;;;13.20;83.60;;;;;;2086667;28;20132;-78
2020/12/20 05:25:49;;;;;;;30.90;5.53;;;13.30;82.90;;;;;;2087243;28;20060;-78
2020/12/20 05:26:51;;;;;;;28.75;6.13;;;13.30;81.10;;;;;;2085819;28;20207;-79